Terminal Aerodrome Forecast
Issued by NWS

Current Version | Previous Version | Text Only | Print | Product List | Glossary On
Versions: 1 2 3 4 5 6 7 8 9 10 11 12 13 14 15 16 17 18 19 20 21 22 23 24 25
000
FTUS41 KOKX 010400 AAB
TAFSWF
TAF AMD
KSWF 010403Z 0104/0206 06010KT P6SM BKN020 OVC050
     FM010800 02008KT 6SM -RA BR OVC015
     FM011500 02010G18KT 5SM -RA BR OVC020
     FM012200 36012G20KT P6SM BKN025
     FM020000 36012G20KT P6SM SCT025 OVC035
      AMD NOT SKED=

USA.gov is the U.S. government's official web portal to all federal, state and local government web resources and services.